Time;durP1;ratioP1;P1;durP2;ratioP2;P2;SDS_P1;SDS_P2;PMS_P1;PMS_P2;Temp;Humidity;BMP_temperature;BMP_pressure;BME280_temperature;BME280_humidity;BME280_pressure;Samples;Min_cycle;Max_cycle;Signal;HPM_P1;HPM_P2
2024/01/06 00:00:23;;;;;;;20.70;14.97;;;6.80;99.90;;;;;;5094358;28;20166;-79
2024/01/06 00:02:48;;;;;;;20.13;15.60;;;6.80;99.90;;;;;;5092273;28;20190;-79
2024/01/06 00:05:14;;;;;;;21.57;14.57;;;6.80;99.90;;;;;;5092136;28;20761;-78
2024/01/06 00:07:40;;;;;;;16.87;14.40;;;6.80;99.90;;;;;;5096124;28;20226;-78
2024/01/06 00:10:06;;;;;;;21.43;15.33;;;6.80;99.90;;;;;;5092139;28;20270;-79
2024/01/06 00:12:32;;;;;;;18.57;14.83;;;6.80;99.90;;;;;;5093930;28;20162;-78
2024/01/06 00:14:57;;;;;;;21.87;14.77;;;6.80;99.90;;;;;;5092535;28;20289;-78
2024/01/06 00:17:23;;;;;;;20.50;15.30;;;6.80;99.90;;;;;;5093241;28;20182;-79
2024/01/06 00:19:51;;;;;;;21.37;15.97;;;6.70;99.90;;;;;;5093863;28;20178;-78
2024/01/06 00:22:18;;;;;;;22.63;16.90;;;6.80;99.90;;;;;;5092372;28;20178;-78
2024/01/06 00:24:43;;;;;;;22.07;15.77;;;6.70;99.90;;;;;;5093448;28;20632;-78
2024/01/06 00:27:09;;;;;;;24.63;17.43;;;6.70;99.90;;;;;;5093021;28;20186;-79
2024/01/06 00:29:34;;;;;;;21.30;15.93;;;6.70;99.90;;;;;;5093428;28;20174;-79
2024/01/06 00:32:00;;;;;;;24.30;18.03;;;6.70;99.90;;;;;;5092048;28;20216;-78
2024/01/06 00:34:25;;;;;;;24.83;17.37;;;6.80;99.90;;;;;;5092485;28;20194;-79
2024/01/06 00:36:51;;;;;;;23.83;19.57;;;6.80;99.90;;;;;;5108098;28;20572;-78
2024/01/06 00:39:16;;;;;;;20.13;16.93;;;6.80;99.90;;;;;;5116962;28;20173;-79
2024/01/06 00:41:42;;;;;;;26.80;18.10;;;6.80;99.90;;;;;;5117161;28;20690;-79
2024/01/06 00:44:07;;;;;;;22.80;17.50;;;6.80;99.90;;;;;;5117206;28;20201;-79
2024/01/06 00:46:33;;;;;;;24.00;17.97;;;6.80;99.90;;;;;;5107623;28;20189;-79
2024/01/06 00:48:59;;;;;;;22.67;18.17;;;6.70;99.90;;;;;;5095143;28;20182;-79
2024/01/06 00:51:24;;;;;;;20.63;17.43;;;6.80;99.90;;;;;;5094176;28;20174;-79
2024/01/06 00:53:50;;;;;;;20.93;17.20;;;6.80;99.90;;;;;;5094737;28;20232;-79
2024/01/06 00:56:15;;;;;;;23.10;18.60;;;6.80;99.90;;;;;;5096117;28;20184;-78
2024/01/06 00:58:41;;;;;;;25.57;19.03;;;6.80;99.90;;;;;;5097566;28;20185;-79
2024/01/06 01:01:06;;;;;;;23.90;19.17;;;6.80;99.90;;;;;;5096596;28;20690;-79
2024/01/06 01:03:32;;;;;;;29.90;19.50;;;6.80;99.90;;;;;;5097568;28;20197;-79
2024/01/06 01:05:58;;;;;;;32.03;19.83;;;6.80;99.90;;;;;;5097806;28;20235;-79
2024/01/06 01:08:24;;;;;;;24.33;19.87;;;6.80;99.90;;;;;;5097571;28;20166;-79
2024/01/06 01:10:49;;;;;;;25.40;19.47;;;6.80;99.90;;;;;;5096259;28;20253;-79
2024/01/06 01:13:15;;;;;;;30.40;19.83;;;6.70;99.90;;;;;;5096426;28;20175;-79
2024/01/06 01:15:40;;;;;;;28.03;20.70;;;6.80;99.90;;;;;;5096462;28;20244;-80
2024/01/06 01:18:06;;;;;;;28.63;20.73;;;6.90;99.90;;;;;;5096659;28;20424;-79
2024/01/06 01:20:31;;;;;;;29.33;21.73;;;6.90;99.90;;;;;;5096756;28;20182;-78
2024/01/06 01:22:57;;;;;;;29.10;21.20;;;6.80;99.90;;;;;;5097785;28;20202;-78
2024/01/06 01:25:22;;;;;;;29.83;19.53;;;6.90;99.90;;;;;;5095687;28;20202;-78
2024/01/06 01:27:48;;;;;;;29.17;20.43;;;6.90;99.90;;;;;;5080106;28;20225;-78
2024/01/06 01:30:14;;;;;;;27.70;19.83;;;6.90;99.90;;;;;;5076251;28;20175;-78
2024/01/06 01:32:39;;;;;;;27.63;21.53;;;6.90;99.90;;;;;;5075832;28;20186;-78
2024/01/06 01:35:05;;;;;;;24.70;20.63;;;6.90;99.90;;;;;;5074496;28;20199;-78
2024/01/06 01:37:31;;;;;;;27.27;21.93;;;6.90;99.90;;;;;;5088397;28;20265;-78
2024/01/06 01:39:57;;;;;;;29.23;21.47;;;6.90;99.90;;;;;;5096370;28;20177;-78
2024/01/06 01:42:22;;;;;;;27.30;21.23;;;6.90;99.90;;;;;;5096306;28;20267;-76
2024/01/06 01:44:48;;;;;;;28.70;21.00;;;6.90;99.90;;;;;;5095532;28;20343;-78
2024/01/06 01:47:18;;;;;;;29.03;21.20;;;6.90;99.90;;;;;;5095443;28;20178;-77
2024/01/06 01:49:46;;;;;;;29.20;21.27;;;6.90;99.90;;;;;;5094615;28;20576;-78
2024/01/06 01:52:13;;;;;;;27.90;22.07;;;7.00;99.90;;;;;;5095372;28;20166;-78
2024/01/06 01:54:39;;;;;;;30.97;21.43;;;6.90;99.90;;;;;;5095713;28;20217;-78
2024/01/06 01:57:04;;;;;;;28.93;22.03;;;7.00;99.90;;;;;;5094261;28;20211;-78
2024/01/06 01:59:30;;;;;;;30.07;22.33;;;6.90;99.90;;;;;;5095678;28;20166;-78
2024/01/06 02:01:56;;;;;;;28.50;21.03;;;6.90;99.90;;;;;;5093880;28;20545;-78
2024/01/06 02:04:22;;;;;;;30.37;21.60;;;6.90;99.90;;;;;;5094020;28;20244;-78
2024/01/06 02:06:48;;;;;;;29.23;21.10;;;6.90;99.90;;;;;;5095159;28;20175;-78
2024/01/06 02:09:13;;;;;;;29.97;22.03;;;6.90;99.90;;;;;;5095529;28;20576;-78
2024/01/06 02:11:39;;;;;;;28.87;20.90;;;6.90;99.90;;;;;;5095051;28;20166;-78
2024/01/06 02:14:04;;;;;;;29.73;22.73;;;6.90;99.90;;;;;;5095012;28;20241;-77
2024/01/06 02:16:30;;;;;;;28.43;21.63;;;6.90;99.90;;;;;;5091369;28;20240;-78
2024/01/06 02:18:57;;;;;;;29.30;21.50;;;6.90;99.90;;;;;;5075817;28;20171;-78
2024/01/06 02:21:23;;;;;;;28.27;21.33;;;7.00;99.90;;;;;;5075191;28;20692;-77
2024/01/06 02:23:49;;;;;;;28.23;21.43;;;6.90;99.90;;;;;;5090062;28;20203;-80
2024/01/06 02:26:16;;;;;;;26.33;21.40;;;6.90;99.90;;;;;;5075158;28;20592;-78
2024/01/06 02:28:41;;;;;;;30.03;21.77;;;6.90;99.90;;;;;;5074045;28;20243;-78
2024/01/06 02:31:07;;;;;;;29.93;21.60;;;6.90;99.90;;;;;;5075777;28;20265;-78
2024/01/06 02:33:32;;;;;;;30.97;22.30;;;6.90;99.90;;;;;;5076889;28;20195;-78
2024/01/06 02:35:58;;;;;;;28.10;20.43;;;6.90;99.90;;;;;;5075119;28;20198;-78
2024/01/06 02:38:23;;;;;;;25.70;20.63;;;6.90;99.90;;;;;;5094258;28;20537;-78
2024/01/06 02:40:49;;;;;;;27.80;22.13;;;6.90;99.90;;;;;;5095036;28;20181;-78
2024/01/06 02:43:14;;;;;;;37.13;21.97;;;7.00;99.90;;;;;;5094018;28;20178;-78
2024/01/06 02:45:40;;;;;;;28.87;21.53;;;6.80;99.90;;;;;;5092730;28;20304;-78
2024/01/06 02:48:05;;;;;;;32.47;22.03;;;6.80;99.90;;;;;;5094046;28;20185;-80
2024/01/06 02:50:31;;;;;;;30.40;22.17;;;6.90;99.90;;;;;;5094890;28;20178;-77
2024/01/06 02:52:56;;;;;;;30.40;21.67;;;6.90;99.90;;;;;;5093650;28;20178;-79
2024/01/06 02:55:22;;;;;;;30.97;22.10;;;6.80;99.90;;;;;;5074289;28;20268;-77
2024/01/06 02:57:47;;;;;;;30.73;23.37;;;6.90;99.90;;;;;;5073281;28;20174;-78
2024/01/06 03:00:13;;;;;;;31.20;22.50;;;6.80;99.90;;;;;;5072242;28;20250;-77
2024/01/06 03:02:41;;;;;;;31.77;22.40;;;6.80;99.90;;;;;;5072972;28;20206;-76
2024/01/06 03:05:08;;;;;;;30.93;21.97;;;6.80;99.90;;;;;;5089069;28;20220;-78
2024/01/06 03:07:34;;;;;;;30.23;22.33;;;6.80;99.90;;;;;;5092130;28;20204;-80
2024/01/06 03:09:59;;;;;;;33.67;23.13;;;6.80;99.90;;;;;;5094520;28;20170;-77
2024/01/06 03:12:25;;;;;;;32.53;23.03;;;6.80;99.90;;;;;;5092023;28;20174;-77
2024/01/06 03:14:51;;;;;;;30.10;22.37;;;6.80;99.90;;;;;;5091745;28;20206;-78
2024/01/06 03:17:17;;;;;;;31.10;22.73;;;6.80;99.90;;;;;;5091899;28;20206;-77
2024/01/06 03:19:43;;;;;;;35.13;23.10;;;6.80;99.90;;;;;;5092464;28;20215;-78
2024/01/06 03:22:09;;;;;;;29.20;19.90;;;6.70;99.90;;;;;;5091615;28;20273;-77
2024/01/06 03:24:34;;;;;;;30.27;19.10;;;6.70;99.90;;;;;;5081678;28;20257;-79
2024/01/06 03:27:00;;;;;;;24.20;16.70;;;6.60;99.90;;;;;;5071561;28;20181;-77
2024/01/06 03:29:25;;;;;;;24.83;15.60;;;6.50;99.90;;;;;;5073249;28;20206;-77
2024/01/06 03:31:50;;;;;;;23.47;15.40;;;6.40;99.90;;;;;;5073043;28;20519;-78
2024/01/06 03:34:16;;;;;;;21.37;14.57;;;6.40;99.90;;;;;;5073816;28;20202;-77
2024/01/06 03:36:42;;;;;;;19.03;13.03;;;6.30;99.90;;;;;;5073032;28;20204;-77
2024/01/06 03:39:07;;;;;;;18.63;13.50;;;6.30;99.90;;;;;;5071320;28;20198;-77
2024/01/06 03:41:33;;;;;;;18.63;13.30;;;6.20;99.90;;;;;;5072228;28;20178;-78
2024/01/06 03:43:59;;;;;;;18.73;12.77;;;6.20;99.90;;;;;;5077748;28;20209;-75
2024/01/06 03:46:24;;;;;;;19.87;12.67;;;6.20;99.90;;;;;;5093675;28;20174;-78
2024/01/06 03:48:50;;;;;;;18.97;12.60;;;6.20;99.90;;;;;;5092539;28;20181;-78
2024/01/06 03:51:16;;;;;;;19.27;11.93;;;6.20;99.90;;;;;;5094056;28;20240;-78
2024/01/06 03:53:41;;;;;;;19.10;11.93;;;6.10;99.90;;;;;;5090172;28;20181;-77
2024/01/06 03:56:07;;;;;;;18.60;12.73;;;6.40;99.90;;;;;;5073407;28;20199;-78
2024/01/06 03:58:33;;;;;;;19.03;12.53;;;6.10;99.90;;;;;;5073915;28;20186;-78
2024/01/06 04:00:58;;;;;;;18.23;11.97;;;6.10;99.90;;;;;;5073617;28;20179;-78
2024/01/06 04:03:24;;;;;;;18.20;12.63;;;6.10;99.90;;;;;;5089780;28;20653;-78
2024/01/06 04:05:49;;;;;;;16.97;11.83;;;6.10;99.90;;;;;;5092469;28;20182;-77
2024/01/06 04:08:15;;;;;;;18.53;11.60;;;6.10;99.90;;;;;;5092311;28;20522;-77
2024/01/06 04:10:41;;;;;;;18.73;12.67;;;6.00;99.90;;;;;;5090907;28;20180;-77
2024/01/06 04:13:07;;;;;;;18.10;13.00;;;6.10;99.90;;;;;;5091171;28;20650;-77
2024/01/06 04:15:32;;;;;;;19.77;13.20;;;6.00;99.90;;;;;;5090647;28;20208;-77
2024/01/06 04:18:02;;;;;;;18.43;11.57;;;6.00;99.90;;;;;;5091105;28;20591;-78
2024/01/06 04:20:27;;;;;;;18.73;13.13;;;6.00;99.90;;;;;;5092808;28;20249;-78
2024/01/06 04:22:53;;;;;;;18.30;12.43;;;6.00;99.90;;;;;;5093773;28;20646;-78
2024/01/06 04:25:18;;;;;;;18.90;12.33;;;6.00;99.90;;;;;;5093301;28;20234;-78
2024/01/06 04:27:46;;;;;;;19.33;13.00;;;6.00;99.90;;;;;;5093882;28;20219;-78
2024/01/06 04:30:12;;;;;;;17.43;12.00;;;5.90;99.90;;;;;;5096291;28;20767;-78
2024/01/06 04:32:38;;;;;;;18.60;12.27;;;5.90;99.90;;;;;;5097835;28;20186;-78
2024/01/06 04:35:03;;;;;;;20.07;12.50;;;6.00;99.90;;;;;;5109529;28;20684;-78
2024/01/06 04:37:29;;;;;;;17.80;11.80;;;6.00;99.90;;;;;;5117528;28;20199;-78
2024/01/06 04:39:55;;;;;;;18.23;11.83;;;6.00;99.90;;;;;;5117545;28;20166;-78
2024/01/06 04:42:22;;;;;;;17.67;11.67;;;5.90;99.90;;;;;;5116317;28;20706;-78
2024/01/06 04:44:48;;;;;;;16.43;10.97;;;5.90;99.90;;;;;;5104108;28;20210;-78
2024/01/06 04:47:13;;;;;;;16.50;11.57;;;5.90;99.90;;;;;;5097451;28;20189;-77
2024/01/06 04:49:39;;;;;;;19.23;11.20;;;5.90;99.90;;;;;;5097298;28;20182;-78
2024/01/06 04:52:04;;;;;;;17.77;10.50;;;5.90;99.90;;;;;;5095575;28;20186;-78
2024/01/06 04:54:30;;;;;;;15.83;10.40;;;5.90;99.90;;;;;;5095783;28;20206;-78
2024/01/06 04:56:56;;;;;;;13.40;9.20;;;5.80;99.90;;;;;;5097310;28;20231;-78
2024/01/06 04:59:21;;;;;;;13.10;9.43;;;5.80;99.90;;;;;;5097488;28;20174;-78
2024/01/06 05:01:47;;;;;;;13.13;9.13;;;5.80;99.90;;;;;;5097080;28;20186;-78
2024/01/06 05:04:12;;;;;;;13.27;9.63;;;5.80;99.90;;;;;;5096862;28;20206;-78
2024/01/06 05:06:38;;;;;;;13.30;9.20;;;5.80;99.90;;;;;;5095625;28;20181;-78
2024/01/06 05:09:03;;;;;;;12.13;8.60;;;5.70;99.90;;;;;;5096863;28;20177;-77
2024/01/06 05:11:29;;;;;;;14.43;8.90;;;5.70;99.90;;;;;;5096622;28;20239;-78
2024/01/06 05:13:55;;;;;;;15.00;9.60;;;5.70;99.90;;;;;;5096374;28;20210;-78
2024/01/06 05:16:20;;;;;;;12.30;9.07;;;5.70;99.90;;;;;;5097074;28;20182;-78
2024/01/06 05:18:46;;;;;;;14.03;9.50;;;5.70;99.90;;;;;;5096798;28;20666;-77
2024/01/06 05:21:11;;;;;;;13.70;9.47;;;5.70;99.90;;;;;;5096749;28;20236;-78
2024/01/06 05:23:37;;;;;;;13.40;9.73;;;5.70;99.90;;;;;;5094984;28;20262;-79
2024/01/06 05:26:03;;;;;;;13.33;9.37;;;5.60;99.90;;;;;;5116631;28;20295;-78
2024/01/06 05:28:28;;;;;;;12.63;9.03;;;5.70;99.90;;;;;;5119784;28;20170;-78
2024/01/06 05:30:53;;;;;;;13.30;9.37;;;5.60;99.90;;;;;;5121382;28;20177;-79
2024/01/06 05:33:19;;;;;;;13.70;9.70;;;5.70;99.90;;;;;;5121118;28;20564;-79
2024/01/06 05:35:45;;;;;;;14.97;9.93;;;5.70;99.90;;;;;;5084031;28;20209;-79
2024/01/06 05:38:10;;;;;;;15.30;10.40;;;5.70;99.90;;;;;;5079491;28;20175;-79
2024/01/06 05:40:36;;;;;;;14.10;10.17;;;5.70;99.90;;;;;;5078148;28;20177;-79
2024/01/06 05:43:04;;;;;;;13.17;9.57;;;5.60;99.90;;;;;;5078805;28;20171;-79
2024/01/06 05:45:30;;;;;;;14.93;9.93;;;5.60;99.90;;;;;;5104273;28;20194;-79
2024/01/06 05:47:55;;;;;;;14.67;10.53;;;5.70;99.90;;;;;;5078013;28;20492;-79
2024/01/06 05:50:21;;;;;;;13.93;10.67;;;5.70;99.90;;;;;;5077194;28;20515;-79
2024/01/06 05:52:48;;;;;;;18.03;11.67;;;5.60;99.90;;;;;;5077322;28;20527;-79
2024/01/06 05:55:13;;;;;;;16.73;11.93;;;5.70;99.90;;;;;;5076351;28;20200;-79
2024/01/06 05:57:39;;;;;;;16.17;11.43;;;5.60;99.90;;;;;;5114113;28;20204;-79
2024/01/06 06:00:10;;;;;;;14.67;11.20;;;5.60;99.90;;;;;;5114702;28;20169;-79
2024/01/06 06:02:36;;;;;;;16.67;11.83;;;5.60;99.90;;;;;;5116518;28;20585;-78
2024/01/06 06:05:02;;;;;;;17.87;13.20;;;5.60;99.90;;;;;;5116178;28;20202;-79
2024/01/06 06:07:28;;;;;;;16.00;11.67;;;5.60;99.90;;;;;;5098325;28;20183;-78
2024/01/06 06:09:54;;;;;;;17.60;12.90;;;5.60;99.90;;;;;;5093856;28;20186;-78
2024/01/06 06:12:19;;;;;;;19.87;13.70;;;5.60;99.90;;;;;;5095358;28;20197;-79
2024/01/06 06:14:45;;;;;;;18.07;13.10;;;5.50;99.90;;;;;;5094072;28;20234;-78
2024/01/06 06:17:10;;;;;;;17.27;12.47;;;5.60;99.90;;;;;;5094256;28;20193;-79
2024/01/06 06:19:36;;;;;;;18.50;12.90;;;5.60;99.90;;;;;;5095089;28;20200;-79
2024/01/06 06:22:01;;;;;;;19.00;12.53;;;5.50;99.90;;;;;;5095335;28;20636;-79
2024/01/06 06:24:27;;;;;;;17.77;12.47;;;5.50;99.90;;;;;;5096484;28;20289;-79
2024/01/06 06:26:52;;;;;;;18.10;13.07;;;5.50;99.90;;;;;;5096657;28;20178;-79
2024/01/06 06:29:18;;;;;;;18.33;12.53;;;5.50;99.90;;;;;;5095507;28;20561;-79
2024/01/06 06:31:44;;;;;;;18.97;13.90;;;5.50;99.90;;;;;;5094174;28;20205;-79
2024/01/06 06:34:10;;;;;;;18.70;12.47;;;5.50;99.90;;;;;;5094312;28;20198;-79
2024/01/06 06:36:36;;;;;;;17.93;13.30;;;5.50;99.90;;;;;;5089523;28;20589;-78
2024/01/06 06:39:04;;;;;;;18.47;13.03;;;5.50;99.90;;;;;;5094342;28;20201;-79
2024/01/06 06:41:29;;;;;;;17.67;12.03;;;5.50;99.90;;;;;;5102797;28;20178;-79
2024/01/06 06:43:55;;;;;;;17.60;12.50;;;5.40;99.90;;;;;;5093593;28;20205;-77
2024/01/06 06:46:21;;;;;;;15.53;11.77;;;5.40;99.90;;;;;;5095868;28;20190;-78
2024/01/06 06:48:46;;;;;;;17.03;12.90;;;5.40;99.90;;;;;;5091090;28;20209;-79
2024/01/06 06:51:12;;;;;;;18.43;13.07;;;5.40;99.90;;;;;;5074883;28;20619;-79
2024/01/06 06:53:37;;;;;;;19.50;13.60;;;5.40;99.90;;;;;;5072629;28;20171;-79
2024/01/06 06:56:03;;;;;;;20.83;14.03;;;5.40;99.90;;;;;;5081398;28;20193;-79
2024/01/06 06:58:29;;;;;;;21.40;13.90;;;5.30;99.90;;;;;;5115306;28;20653;-78
2024/01/06 07:00:54;;;;;;;19.57;12.77;;;5.30;99.90;;;;;;5113933;28;20170;-78
2024/01/06 07:03:20;;;;;;;15.93;12.27;;;5.30;99.90;;;;;;5113811;28;20176;-79
2024/01/06 07:05:46;;;;;;;18.93;11.97;;;5.20;99.90;;;;;;5114238;28;20192;-79
2024/01/06 07:08:14;;;;;;;21.27;12.87;;;5.20;99.90;;;;;;5079420;28;20167;-80
2024/01/06 07:10:40;;;;;;;19.50;13.43;;;5.20;99.90;;;;;;5077073;28;20175;-79
2024/01/06 07:13:05;;;;;;;18.50;12.60;;;5.20;99.90;;;;;;5076763;28;20175;-79
2024/01/06 07:15:31;;;;;;;17.57;13.03;;;5.20;99.90;;;;;;5076551;28;20274;-79
2024/01/06 07:17:56;;;;;;;20.30;13.20;;;5.20;99.90;;;;;;5094776;28;20604;-79
2024/01/06 07:20:22;;;;;;;19.80;12.83;;;5.20;99.90;;;;;;5095410;28;20247;-79
2024/01/06 07:22:47;;;;;;;18.13;13.00;;;5.20;99.90;;;;;;5097297;28;20182;-79
2024/01/06 07:25:13;;;;;;;17.53;12.43;;;5.20;99.90;;;;;;5094424;28;20297;-79
2024/01/06 07:27:38;;;;;;;17.80;12.47;;;5.20;99.90;;;;;;5094948;28;20196;-79
2024/01/06 07:30:05;;;;;;;19.07;12.03;;;5.20;99.90;;;;;;5095946;28;20177;-79
2024/01/06 07:32:31;;;;;;;16.37;11.53;;;5.20;99.90;;;;;;5095665;28;20186;-79
2024/01/06 07:34:56;;;;;;;18.50;11.90;;;5.20;99.90;;;;;;5095176;28;20243;-79
2024/01/06 07:37:22;;;;;;;17.37;11.43;;;5.20;99.90;;;;;;5093875;28;20638;-79
2024/01/06 07:39:47;;;;;;;16.83;10.90;;;5.20;99.90;;;;;;5077299;28;20280;-79
2024/01/06 07:42:13;;;;;;;19.13;11.93;;;5.20;99.90;;;;;;5074350;28;20246;-79
2024/01/06 07:44:38;;;;;;;19.40;13.33;;;5.20;99.90;;;;;;5074217;28;20289;-79
2024/01/06 07:47:05;;;;;;;19.70;12.70;;;5.20;99.90;;;;;;5073863;28;20193;-79
2024/01/06 07:49:31;;;;;;;19.90;11.93;;;5.20;99.90;;;;;;5073151;28;20232;-79
2024/01/06 07:51:57;;;;;;;16.83;11.87;;;5.10;99.90;;;;;;5081544;28;20177;-79
2024/01/06 07:54:22;;;;;;;18.57;12.30;;;5.10;99.90;;;;;;5100891;28;20284;-79
2024/01/06 07:56:48;;;;;;;20.23;13.33;;;5.10;99.90;;;;;;5094106;28;20215;-79
2024/01/06 07:59:13;;;;;;;21.03;13.13;;;5.10;99.90;;;;;;5092652;28;20174;-79
2024/01/06 08:01:39;;;;;;;19.37;13.63;;;5.10;99.90;;;;;;5097741;28;20234;-79
2024/01/06 08:04:05;;;;;;;21.07;13.17;;;5.10;99.90;;;;;;5113095;28;20197;-78
2024/01/06 08:06:30;;;;;;;24.80;14.77;;;5.10;99.90;;;;;;5118876;28;20274;-79
2024/01/06 08:08:56;;;;;;;22.07;14.03;;;5.00;99.90;;;;;;5118437;28;20170;-79
2024/01/06 08:11:21;;;;;;;23.43;14.50;;;5.00;99.90;;;;;;5118333;28;20176;-79
2024/01/06 08:13:47;;;;;;;25.03;13.27;;;5.10;99.90;;;;;;5118607;28;20183;-79
2024/01/06 08:16:13;;;;;;;21.87;12.90;;;5.00;99.90;;;;;;5104271;28;20201;-79
2024/01/06 08:18:38;;;;;;;23.20;14.00;;;5.00;99.90;;;;;;5098385;28;20174;-79
2024/01/06 08:21:04;;;;;;;22.53;14.00;;;5.00;99.90;;;;;;5098141;28;20646;-79
2024/01/06 08:23:29;;;;;;;21.33;13.53;;;5.00;99.90;;;;;;5096449;28;20220;-79
2024/01/06 08:25:55;;;;;;;22.63;13.87;;;4.90;99.90;;;;;;5098049;28;20607;-79
2024/01/06 08:28:23;;;;;;;21.17;13.77;;;5.00;99.90;;;;;;5096554;28;20334;-79
2024/01/06 08:30:49;;;;;;;25.77;14.83;;;5.00;99.90;;;;;;5097502;28;20170;-79
2024/01/06 08:33:14;;;;;;;26.30;15.87;;;5.00;99.90;;;;;;5097493;28;20632;-79
2024/01/06 08:35:40;;;;;;;25.57;14.50;;;4.90;99.90;;;;;;5096191;28;20270;-78
2024/01/06 08:38:08;;;;;;;26.30;15.90;;;5.00;99.90;;;;;;5096396;28;20174;-79
2024/01/06 08:40:35;;;;;;;28.33;16.23;;;4.90;99.90;;;;;;5097309;28;20171;-79
2024/01/06 08:43:01;;;;;;;29.27;17.27;;;5.00;99.90;;;;;;5097328;28;20174;-79
2024/01/06 08:45:27;;;;;;;28.63;17.10;;;4.90;99.90;;;;;;5093879;28;20209;-80
2024/01/06 08:47:52;;;;;;;28.27;17.43;;;5.00;99.90;;;;;;5097680;28;20311;-79
2024/01/06 08:50:18;;;;;;;28.73;16.97;;;5.00;99.90;;;;;;5099599;28;20568;-79
2024/01/06 08:52:43;;;;;;;28.43;18.00;;;4.90;99.90;;;;;;5101755;28;20231;-79
2024/01/06 08:55:09;;;;;;;25.53;16.77;;;4.90;99.90;;;;;;5101508;28;20693;-77
2024/01/06 08:57:34;;;;;;;28.23;17.53;;;4.90;99.90;;;;;;5098442;28;20303;-79
2024/01/06 09:00:00;;;;;;;31.07;17.03;;;4.90;99.90;;;;;;5098610;28;20641;-79
2024/01/06 09:02:25;;;;;;;27.30;17.13;;;4.90;99.90;;;;;;5097548;28;20507;-79
2024/01/06 09:04:51;;;;;;;29.53;17.87;;;4.90;99.90;;;;;;5097127;28;20216;-79
2024/01/06 09:07:17;;;;;;;34.33;18.77;;;4.90;99.90;;;;;;5096697;28;20177;-78
2024/01/06 09:09:43;;;;;;;34.87;20.30;;;4.90;99.90;;;;;;5097331;28;20642;-79
2024/01/06 09:12:09;;;;;;;30.57;18.83;;;4.80;99.90;;;;;;5095859;28;20181;-79
2024/01/06 09:14:34;;;;;;;32.13;19.13;;;4.90;99.90;;;;;;5097190;28;20198;-79
2024/01/06 09:17:00;;;;;;;34.57;20.67;;;4.80;99.90;;;;;;5095965;28;20182;-79
2024/01/06 09:19:28;;;;;;;37.23;19.80;;;4.90;99.90;;;;;;5095378;28;20298;-78
2024/01/06 09:21:54;;;;;;;37.30;19.93;;;4.90;99.90;;;;;;5096404;28;20710;-79
2024/01/06 09:24:20;;;;;;;35.80;20.37;;;4.90;99.90;;;;;;5094492;28;20220;-79
2024/01/06 09:26:46;;;;;;;41.63;22.00;;;4.90;99.90;;;;;;5096977;28;20170;-79
2024/01/06 09:29:11;;;;;;;38.47;22.17;;;4.90;99.90;;;;;;5097050;28;20207;-79
2024/01/06 09:31:37;;;;;;;36.50;21.63;;;4.90;99.90;;;;;;5096376;28;20253;-78
2024/01/06 09:34:02;;;;;;;42.47;23.30;;;4.80;99.90;;;;;;5095212;28;20555;-79
2024/01/06 09:36:29;;;;;;;37.27;21.20;;;4.80;99.90;;;;;;5094197;28;20178;-79
2024/01/06 09:38:55;;;;;;;39.40;22.83;;;4.80;99.90;;;;;;5090589;28;20183;-78
2024/01/06 09:41:21;;;;;;;37.90;21.77;;;4.80;99.90;;;;;;5075737;28;20205;-79
2024/01/06 09:43:47;;;;;;;34.03;21.87;;;4.70;99.90;;;;;;5075698;28;20671;-79
2024/01/06 09:46:27;;;;;;;39.10;21.47;;;4.70;99.90;;;;;;5076556;28;20186;-79
2024/01/06 09:48:54;;;;;;;36.50;20.63;;;4.70;99.90;;;;;;5094316;28;20174;-79
2024/01/06 09:51:20;;;;;;;36.00;20.50;;;4.60;99.90;;;;;;5117505;28;20215;-79
2024/01/06 09:53:49;;;;;;;35.20;20.27;;;4.60;99.90;;;;;;5116560;28;20291;-79
2024/01/06 09:56:17;;;;;;;32.20;19.17;;;4.70;99.90;;;;;;5118532;28;20173;-79
2024/01/06 09:58:44;;;;;;;32.53;19.90;;;4.70;99.90;;;;;;5119969;28;20656;-79
2024/01/06 10:01:11;;;;;;;33.13;18.03;;;4.60;99.90;;;;;;5118432;28;20177;-79
2024/01/06 10:03:38;;;;;;;30.47;17.73;;;4.60;99.90;;;;;;5097798;28;20769;-81
2024/01/06 10:06:04;;;;;;;30.10;17.70;;;4.60;99.90;;;;;;5094640;28;20695;-80
2024/01/06 10:08:32;;;;;;;32.07;18.30;;;4.60;99.90;;;;;;5094701;28;20174;-80
2024/01/06 10:10:59;;;;;;;30.53;17.90;;;4.50;99.90;;;;;;5095340;28;20176;-80
2024/01/06 10:13:25;;;;;;;27.00;16.47;;;4.50;99.90;;;;;;5095380;28;20201;-77
2024/01/06 10:15:51;;;;;;;30.60;17.37;;;4.50;99.90;;;;;;5095594;28;20186;-78
2024/01/06 10:18:16;;;;;;;25.83;15.10;;;4.50;99.90;;;;;;5094034;28;20181;-77
2024/01/06 10:20:45;;;;;;;27.70;17.40;;;4.50;99.90;;;;;;5094528;28;20170;-78
2024/01/06 10:23:10;;;;;;;28.47;17.53;;;4.50;99.90;;;;;;5096218;28;20167;-79
2024/01/06 10:25:36;;;;;;;36.70;20.50;;;4.50;99.90;;;;;;5094621;28;20210;-79
2024/01/06 10:28:03;;;;;;;40.40;19.73;;;4.50;99.90;;;;;;5094171;28;20293;-79
2024/01/06 10:30:28;;;;;;;33.77;19.27;;;4.50;99.90;;;;;;5095713;28;20169;-78
2024/01/06 10:32:54;;;;;;;34.83;19.93;;;4.40;99.90;;;;;;5094437;28;20183;-78
2024/01/06 10:35:20;;;;;;;26.73;17.57;;;4.50;99.90;;;;;;5096195;28;20297;-78
2024/01/06 10:37:47;;;;;;;25.13;16.07;;;4.40;99.90;;;;;;5115791;28;20544;-79
2024/01/06 10:40:16;;;;;;;26.90;15.80;;;4.50;99.90;;;;;;5116413;28;20165;-78
2024/01/06 10:42:43;;;;;;;23.80;14.10;;;4.40;99.90;;;;;;5114716;28;20174;-78
2024/01/06 10:45:10;;;;;;;23.97;13.07;;;4.40;99.90;;;;;;5115983;28;20205;-78
2024/01/06 10:47:43;;;;;;;22.40;13.20;;;4.40;99.90;;;;;;5114806;28;20173;-79
2024/01/06 10:50:08;;;;;;;21.17;12.30;;;4.40;99.90;;;;;;5105369;28;20196;-79
2024/01/06 10:52:35;;;;;;;18.73;11.47;;;4.40;99.90;;;;;;5094110;28;20545;-78
2024/01/06 10:55:02;;;;;;;19.33;11.10;;;4.30;99.90;;;;;;5095675;28;20277;-78
2024/01/06 10:57:31;;;;;;;18.90;11.27;;;4.30;99.90;;;;;;5095681;28;20736;-78
2024/01/06 10:59:58;;;;;;;20.03;11.70;;;4.30;99.90;;;;;;5098745;28;20178;-78
2024/01/06 11:02:25;;;;;;;18.00;11.63;;;4.30;99.90;;;;;;5095968;28;20166;-78
2024/01/06 11:04:51;;;;;;;19.67;11.10;;;4.20;99.90;;;;;;5093540;28;20209;-79
2024/01/06 11:07:23;;;;;;;19.30;12.27;;;4.20;99.90;;;;;;5093815;28;20516;-78
2024/01/06 11:10:02;;;;;;;19.33;11.43;;;4.20;99.90;;;;;;5093827;28;20581;-79
2024/01/06 11:12:28;;;;;;;18.30;12.20;;;4.20;99.90;;;;;;5095246;28;20169;-78
2024/01/06 11:14:54;;;;;;;22.33;12.87;;;4.20;99.90;;;;;;5100429;28;20190;-79
2024/01/06 11:17:53;;;;;;;21.77;13.47;;;4.20;99.90;;;;;;5099780;28;20177;-79
2024/01/06 11:20:19;;;;;;;20.23;12.33;;;4.20;99.90;;;;;;5098408;28;20613;-79
2024/01/06 11:22:45;;;;;;;20.87;13.00;;;4.30;99.90;;;;;;5097187;28;20182;-79
2024/01/06 11:25:16;;;;;;;20.80;13.27;;;4.40;99.90;;;;;;5096555;28;20677;-79
2024/01/06 11:27:45;;;;;;;26.20;15.00;;;4.30;99.90;;;;;;5097464;28;20178;-79
2024/01/06 11:30:24;;;;;;;29.63;16.93;;;4.30;99.90;;;;;;5095290;28;20166;-79
2024/01/06 11:32:52;;;;;;;27.30;16.90;;;4.20;99.90;;;;;;5096451;28;20227;-79
2024/01/06 11:35:18;;;;;;;28.97;17.60;;;4.20;99.90;;;;;;5094994;28;20244;-79
2024/01/06 11:37:43;;;;;;;34.50;21.33;;;4.20;99.90;;;;;;5095241;28;20190;-79
2024/01/06 11:40:25;;;;;;;37.20;21.90;;;4.10;99.90;;;;;;5093309;28;20178;-78
2024/01/06 11:43:07;;;;;;;30.80;19.73;;;4.10;99.90;;;;;;5093251;28;20166;-78
2024/01/06 11:45:33;;;;;;;33.87;20.37;;;4.10;99.90;;;;;;5092437;28;20213;-78
2024/01/06 11:48:02;;;;;;;31.87;19.27;;;4.00;99.90;;;;;;5093201;28;20166;-78
2024/01/06 11:50:28;;;;;;;36.20;20.57;;;3.90;99.90;;;;;;5094169;28;20243;-79
2024/01/06 11:52:55;;;;;;;36.67;22.37;;;3.90;99.90;;;;;;5094906;28;20178;-78
2024/01/06 11:55:21;;;;;;;36.20;21.63;;;4.00;99.90;;;;;;5094522;28;20190;-78
2024/01/06 11:57:47;;;;;;;33.20;20.20;;;4.00;99.90;;;;;;5092712;28;20505;-78
2024/01/06 12:00:14;;;;;;;33.50;19.83;;;4.10;99.90;;;;;;5091928;28;20186;-79
2024/01/06 12:02:40;;;;;;;32.60;20.13;;;4.10;99.90;;;;;;5092044;28;20646;-78
2024/01/06 12:05:05;;;;;;;35.93;21.07;;;4.00;99.90;;;;;;5093413;28;20202;-78
2024/01/06 12:07:31;;;;;;;35.73;20.97;;;4.00;99.90;;;;;;5092408;28;20166;-78
2024/01/06 12:10:04;;;;;;;38.13;22.03;;;4.00;99.90;;;;;;5092171;28;20252;-78
2024/01/06 12:12:29;;;;;;;34.17;19.63;;;4.00;99.90;;;;;;5093285;28;20182;-78
2024/01/06 12:14:55;;;;;;;38.10;20.17;;;4.00;99.90;;;;;;5091849;28;20194;-78
2024/01/06 12:17:21;;;;;;;37.53;20.73;;;3.90;99.90;;;;;;5093320;28;20235;-79
2024/01/06 12:19:47;;;;;;;34.87;19.00;;;3.90;99.90;;;;;;5092090;28;20182;-79
2024/01/06 12:22:14;;;;;;;37.73;18.90;;;3.90;99.90;;;;;;5091870;28;20252;-78
2024/01/06 12:24:41;;;;;;;33.83;19.00;;;3.90;99.90;;;;;;5091520;28;20293;-78
2024/01/06 12:27:12;;;;;;;34.83;19.83;;;3.90;99.90;;;;;;5092459;28;20189;-78
2024/01/06 12:29:40;;;;;;;33.77;18.63;;;3.80;99.90;;;;;;5093484;28;20505;-78
2024/01/06 12:32:05;;;;;;;29.87;17.80;;;3.80;99.90;;;;;;5092965;28;20213;-80